首页
METAR-TAF:

METAR-TAF

机场 :

帕拉瓜纳, 委内瑞拉

纬度: 11-47N, 经度: 070-09W, 海拔: 23米

当前天气观测

该预报发布于7小时和18分钟前的19:00 UTC
风速13节,风向
温度
气压
能见度10公里或以上
散云层高于1900英尺

METAR: SVJC 241900Z 09013KT 9999 SCT019 XX/XX QXXXX

时间: 22:18 (02:18 UTC)

预报

该预报发布于4小时和18分钟前的22:00 UTC
预报有效从25日的 00点(UTC)到 26日的 00点(UTC)
风速10节,风向
能见度10公里或以上
散云层高于8000英尺
多云层高于2000英尺
成为
从 25日的 01点(UTC)到 25日的 05点(UTC)
风速10节,风向,有时为15节阵风
能見度: 9000
多云层高于1600英尺
大毛毛雨,

TAF: SVJC 242200Z 2500/2600 09010KT 9999 SCT080 BKN020 TX33/2519Z TN23/2507Z BECMG 2501/2505 09010G15KT 9000 +DZ BKN016

超过4000个机场的气象观测和天气预报(METAR&TAF报告)。

可查询的气象台以黄色和红色小点在地图上表示。

将鼠标移到小点上方,可查看气象台名称。

然后点击查看天气观测和预报。

如需切换地图:点击带黑十字的绿色按钮放大地图;点击带横线的绿色按钮缩小地图;或者点击绿色箭头查看邻近地区的地图。


METAR-TAF: